sensor_id;sensor_type;location;lat;lon;timestamp;P1;durP1;ratioP1;P2;durP2;ratioP2
7703;SDS011;3894;49.700;10.770;2022-08-03T00:01:40;3.95;;;3.25;;
7703;SDS011;3894;49.700;10.770;2022-08-03T00:04:06;3.58;;;2.97;;
7703;SDS011;3894;49.700;10.770;2022-08-03T00:06:33;3.65;;;3.05;;
7703;SDS011;3894;49.700;10.770;2022-08-03T00:08:59;5.50;;;3.38;;
7703;SDS011;3894;49.700;10.770;2022-08-03T00:11:24;4.70;;;3.20;;
7703;SDS011;3894;49.700;10.770;2022-08-03T00:13:51;4.65;;;3.40;;
7703;SDS011;3894;49.700;10.770;2022-08-03T00:16:16;3.92;;;3.25;;
7703;SDS011;3894;49.700;10.770;2022-08-03T00:18:42;4.95;;;3.20;;
7703;SDS011;3894;49.700;10.770;2022-08-03T00:21:08;6.68;;;3.25;;
7703;SDS011;3894;49.700;10.770;2022-08-03T00:23:33;4.28;;;3.47;;
7703;SDS011;3894;49.700;10.770;2022-08-03T00:25:59;4.75;;;3.25;;
7703;SDS011;3894;49.700;10.770;2022-08-03T00:28:25;4.82;;;3.38;;
7703;SDS011;3894;49.700;10.770;2022-08-03T00:30:51;4.65;;;3.35;;
7703;SDS011;3894;49.700;10.770;2022-08-03T00:33:17;3.95;;;3.22;;
7703;SDS011;3894;49.700;10.770;2022-08-03T00:35:42;6.07;;;3.47;;
7703;SDS011;3894;49.700;10.770;2022-08-03T00:38:08;4.03;;;3.22;;
7703;SDS011;3894;49.700;10.770;2022-08-03T00:40:33;5.85;;;3.70;;
7703;SDS011;3894;49.700;10.770;2022-08-03T00:43:00;4.30;;;3.15;;
7703;SDS011;3894;49.700;10.770;2022-08-03T00:45:30;5.00;;;3.40;;
7703;SDS011;3894;49.700;10.770;2022-08-03T00:48:01;3.83;;;3.20;;
7703;SDS011;3894;49.700;10.770;2022-08-03T00:50:29;4.30;;;3.22;;
7703;SDS011;3894;49.700;10.770;2022-08-03T00:52:56;3.83;;;3.17;;
7703;SDS011;3894;49.700;10.770;2022-08-03T00:55:23;4.50;;;3.55;;
7703;SDS011;3894;49.700;10.770;2022-08-03T00:57:49;3.70;;;3.30;;
7703;SDS011;3894;49.700;10.770;2022-08-03T01:00:17;4.25;;;3.33;;
7703;SDS011;3894;49.700;10.770;2022-08-03T01:02:45;4.20;;;3.45;;
7703;SDS011;3894;49.700;10.770;2022-08-03T01:05:11;6.85;;;3.45;;
7703;SDS011;3894;49.700;10.770;2022-08-03T01:15:53;6.18;;;3.60;;
7703;SDS011;3894;49.700;10.770;2022-08-03T01:21:13;5.75;;;3.75;;
7703;SDS011;3894;49.700;10.770;2022-08-03T01:30:26;5.30;;;3.60;;
7703;SDS011;3894;49.700;10.770;2022-08-03T01:32:34;5.70;;;3.78;;
7703;SDS011;3894;49.700;10.770;2022-08-03T01:35:13;4.43;;;3.53;;
7703;SDS011;3894;49.700;10.770;2022-08-03T01:37:49;5.15;;;3.67;;
7703;SDS011;3894;49.700;10.770;2022-08-03T01:40:19;5.18;;;3.40;;
7703;SDS011;3894;49.700;10.770;2022-08-03T01:42:48;4.60;;;3.38;;
7703;SDS011;3894;49.700;10.770;2022-08-03T01:45:15;4.57;;;3.58;;
7703;SDS011;3894;49.700;10.770;2022-08-03T01:47:43;4.65;;;3.70;;
7703;SDS011;3894;49.700;10.770;2022-08-03T01:50:10;5.10;;;3.80;;
7703;SDS011;3894;49.700;10.770;2022-08-03T01:52:41;6.32;;;4.10;;
7703;SDS011;3894;49.700;10.770;2022-08-03T01:55:08;7.53;;;4.20;;
7703;SDS011;3894;49.700;10.770;2022-08-03T01:57:35;5.32;;;3.83;;
7703;SDS011;3894;49.700;10.770;2022-08-03T02:00:03;9.68;;;4.00;;
7703;SDS011;3894;49.700;10.770;2022-08-03T02:02:30;5.00;;;3.70;;
7703;SDS011;3894;49.700;10.770;2022-08-03T02:04:57;5.03;;;3.70;;
7703;SDS011;3894;49.700;10.770;2022-08-03T02:07:25;7.45;;;3.75;;
7703;SDS011;3894;49.700;10.770;2022-08-03T02:09:53;5.63;;;3.85;;
7703;SDS011;3894;49.700;10.770;2022-08-03T02:12:19;6.82;;;3.90;;
7703;SDS011;3894;49.700;10.770;2022-08-03T02:14:48;6.65;;;4.22;;
7703;SDS011;3894;49.700;10.770;2022-08-03T02:17:14;7.97;;;4.32;;
7703;SDS011;3894;49.700;10.770;2022-08-03T02:19:43;6.47;;;4.45;;
7703;SDS011;3894;49.700;10.770;2022-08-03T02:22:10;6.78;;;4.15;;
7703;SDS011;3894;49.700;10.770;2022-08-03T02:24:37;5.68;;;4.03;;
7703;SDS011;3894;49.700;10.770;2022-08-03T02:27:09;5.32;;;3.88;;
7703;SDS011;3894;49.700;10.770;2022-08-03T02:29:47;5.93;;;4.28;;
7703;SDS011;3894;49.700;10.770;2022-08-03T02:32:18;7.00;;;4.35;;
7703;SDS011;3894;49.700;10.770;2022-08-03T02:34:48;6.60;;;4.32;;
7703;SDS011;3894;49.700;10.770;2022-08-03T02:37:17;4.88;;;3.97;;
7703;SDS011;3894;49.700;10.770;2022-08-03T02:39:44;5.32;;;3.80;;
7703;SDS011;3894;49.700;10.770;2022-08-03T02:42:12;6.35;;;4.03;;
7703;SDS011;3894;49.700;10.770;2022-08-03T02:44:40;6.90;;;4.10;;
7703;SDS011;3894;49.700;10.770;2022-08-03T02:47:12;8.10;;;4.10;;
7703;SDS011;3894;49.700;10.770;2022-08-03T02:49:40;5.15;;;3.90;;
7703;SDS011;3894;49.700;10.770;2022-08-03T02:52:09;5.35;;;4.18;;
7703;SDS011;3894;49.700;10.770;2022-08-03T02:54:37;5.95;;;4.43;;
7703;SDS011;3894;49.700;10.770;2022-08-03T02:57:04;5.72;;;3.80;;
7703;SDS011;3894;49.700;10.770;2022-08-03T02:59:31;6.80;;;3.90;;
7703;SDS011;3894;49.700;10.770;2022-08-03T03:01:59;6.35;;;4.10;;
7703;SDS011;3894;49.700;10.770;2022-08-03T03:04:27;6.43;;;3.97;;
7703;SDS011;3894;49.700;10.770;2022-08-03T03:06:54;5.15;;;3.90;;
7703;SDS011;3894;49.700;10.770;2022-08-03T03:09:20;5.38;;;3.78;;
7703;SDS011;3894;49.700;10.770;2022-08-03T03:11:46;4.88;;;3.78;;
7703;SDS011;3894;49.700;10.770;2022-08-03T03:14:13;4.65;;;3.75;;
7703;SDS011;3894;49.700;10.770;2022-08-03T03:16:39;5.13;;;4.28;;
7703;SDS011;3894;49.700;10.770;2022-08-03T03:19:06;7.95;;;4.68;;
7703;SDS011;3894;49.700;10.770;2022-08-03T03:21:33;6.03;;;3.90;;
7703;SDS011;3894;49.700;10.770;2022-08-03T03:24:01;5.50;;;3.88;;
7703;SDS011;3894;49.700;10.770;2022-08-03T03:26:27;6.50;;;3.45;;
7703;SDS011;3894;49.700;10.770;2022-08-03T03:28:53;5.05;;;3.78;;
7703;SDS011;3894;49.700;10.770;2022-08-03T03:31:20;5.18;;;4.28;;
7703;SDS011;3894;49.700;10.770;2022-08-03T03:33:46;5.85;;;4.20;;
7703;SDS011;3894;49.700;10.770;2022-08-03T03:36:12;5.47;;;4.25;;
7703;SDS011;3894;49.700;10.770;2022-08-03T03:38:37;6.38;;;4.13;;
7703;SDS011;3894;49.700;10.770;2022-08-03T03:41:03;5.32;;;4.30;;
7703;SDS011;3894;49.700;10.770;2022-08-03T03:43:29;6.63;;;4.03;;
7703;SDS011;3894;49.700;10.770;2022-08-03T03:45:55;5.35;;;3.78;;
7703;SDS011;3894;49.700;10.770;2022-08-03T03:48:23;6.60;;;4.00;;
7703;SDS011;3894;49.700;10.770;2022-08-03T03:50:49;6.63;;;3.88;;
7703;SDS011;3894;49.700;10.770;2022-08-03T03:53:14;7.32;;;4.63;;
7703;SDS011;3894;49.700;10.770;2022-08-03T03:55:40;6.45;;;4.00;;
7703;SDS011;3894;49.700;10.770;2022-08-03T03:58:06;4.82;;;3.83;;
7703;SDS011;3894;49.700;10.770;2022-08-03T04:00:32;6.18;;;4.30;;
7703;SDS011;3894;49.700;10.770;2022-08-03T04:02:57;6.85;;;4.30;;
7703;SDS011;3894;49.700;10.770;2022-08-03T04:05:23;5.40;;;4.10;;
7703;SDS011;3894;49.700;10.770;2022-08-03T04:08:14;6.15;;;4.03;;
7703;SDS011;3894;49.700;10.770;2022-08-03T04:13:32;6.28;;;3.92;;
7703;SDS011;3894;49.700;10.770;2022-08-03T04:16:00;6.43;;;3.95;;
7703;SDS011;3894;49.700;10.770;2022-08-03T04:18:28;5.18;;;3.95;;
7703;SDS011;3894;49.700;10.770;2022-08-03T04:20:57;5.90;;;4.20;;
7703;SDS011;3894;49.700;10.770;2022-08-03T04:23:25;5.88;;;3.90;;
7703;SDS011;3894;49.700;10.770;2022-08-03T04:25:54;6.55;;;4.40;;
7703;SDS011;3894;49.700;10.770;2022-08-03T04:28:21;6.78;;;4.32;;
7703;SDS011;3894;49.700;10.770;2022-08-03T04:30:48;6.32;;;4.30;;
7703;SDS011;3894;49.700;10.770;2022-08-03T04:33:17;7.60;;;4.40;;
7703;SDS011;3894;49.700;10.770;2022-08-03T04:35:44;7.15;;;4.70;;
7703;SDS011;3894;49.700;10.770;2022-08-03T04:38:12;5.90;;;4.22;;
7703;SDS011;3894;49.700;10.770;2022-08-03T04:40:40;7.03;;;5.10;;
7703;SDS011;3894;49.700;10.770;2022-08-03T04:43:08;6.85;;;4.50;;
7703;SDS011;3894;49.700;10.770;2022-08-03T04:45:35;7.90;;;4.93;;
7703;SDS011;3894;49.700;10.770;2022-08-03T04:48:02;7.40;;;4.45;;
7703;SDS011;3894;49.700;10.770;2022-08-03T04:50:28;6.15;;;4.57;;
7703;SDS011;3894;49.700;10.770;2022-08-03T04:52:54;6.43;;;4.20;;
7703;SDS011;3894;49.700;10.770;2022-08-03T04:55:26;8.68;;;4.65;;
7703;SDS011;3894;49.700;10.770;2022-08-03T04:57:57;6.35;;;4.60;;
7703;SDS011;3894;49.700;10.770;2022-08-03T05:00:23;6.72;;;4.78;;
7703;SDS011;3894;49.700;10.770;2022-08-03T05:02:49;8.48;;;4.93;;
7703;SDS011;3894;49.700;10.770;2022-08-03T05:05:16;7.32;;;5.00;;
7703;SDS011;3894;49.700;10.770;2022-08-03T05:07:41;7.75;;;5.40;;
7703;SDS011;3894;49.700;10.770;2022-08-03T05:10:08;7.18;;;4.75;;
7703;SDS011;3894;49.700;10.770;2022-08-03T05:12:34;6.40;;;5.25;;
7703;SDS011;3894;49.700;10.770;2022-08-03T05:15:00;7.43;;;5.25;;
7703;SDS011;3894;49.700;10.770;2022-08-03T05:17:26;7.43;;;5.82;;
7703;SDS011;3894;49.700;10.770;2022-08-03T05:19:52;7.82;;;5.05;;
7703;SDS011;3894;49.700;10.770;2022-08-03T05:22:19;6.68;;;5.07;;
7703;SDS011;3894;49.700;10.770;2022-08-03T05:24:45;8.80;;;5.97;;
7703;SDS011;3894;49.700;10.770;2022-08-03T05:27:11;6.80;;;5.22;;
7703;SDS011;3894;49.700;10.770;2022-08-03T05:29:41;7.55;;;5.38;;
7703;SDS011;3894;49.700;10.770;2022-08-03T05:32:07;9.05;;;5.70;;
7703;SDS011;3894;49.700;10.770;2022-08-03T05:34:33;7.05;;;5.35;;
7703;SDS011;3894;49.700;10.770;2022-08-03T05:36:58;7.07;;;5.47;;
7703;SDS011;3894;49.700;10.770;2022-08-03T05:39:24;10.65;;;6.10;;
7703;SDS011;3894;49.700;10.770;2022-08-03T05:41:49;7.82;;;5.55;;
7703;SDS011;3894;49.700;10.770;2022-08-03T05:44:15;7.63;;;5.88;;
7703;SDS011;3894;49.700;10.770;2022-08-03T05:46:40;10.18;;;6.40;;
7703;SDS011;3894;49.700;10.770;2022-08-03T05:49:06;8.30;;;6.30;;
7703;SDS011;3894;49.700;10.770;2022-08-03T05:51:31;8.10;;;6.10;;
7703;SDS011;3894;49.700;10.770;2022-08-03T05:53:57;9.55;;;6.78;;
7703;SDS011;3894;49.700;10.770;2022-08-03T05:56:23;9.13;;;6.68;;
7703;SDS011;3894;49.700;10.770;2022-08-03T05:58:49;7.22;;;6.00;;
7703;SDS011;3894;49.700;10.770;2022-08-03T06:01:16;8.30;;;6.47;;
7703;SDS011;3894;49.700;10.770;2022-08-03T06:03:42;6.78;;;5.65;;
7703;SDS011;3894;49.700;10.770;2022-08-03T06:06:08;7.38;;;5.15;;
7703;SDS011;3894;49.700;10.770;2022-08-03T06:08:33;6.18;;;4.55;;
7703;SDS011;3894;49.700;10.770;2022-08-03T06:10:59;10.35;;;4.80;;
7703;SDS011;3894;49.700;10.770;2022-08-03T06:13:24;4.93;;;4.20;;
7703;SDS011;3894;49.700;10.770;2022-08-03T06:15:50;6.63;;;4.93;;
7703;SDS011;3894;49.700;10.770;2022-08-03T06:18:16;6.93;;;5.20;;
7703;SDS011;3894;49.700;10.770;2022-08-03T06:20:41;6.95;;;5.38;;
7703;SDS011;3894;49.700;10.770;2022-08-03T06:23:07;9.68;;;5.40;;
7703;SDS011;3894;49.700;10.770;2022-08-03T06:25:32;7.88;;;5.60;;
7703;SDS011;3894;49.700;10.770;2022-08-03T06:27:58;9.20;;;5.57;;
7703;SDS011;3894;49.700;10.770;2022-08-03T06:30:24;9.02;;;5.75;;
7703;SDS011;3894;49.700;10.770;2022-08-03T06:32:49;7.60;;;6.45;;
7703;SDS011;3894;49.700;10.770;2022-08-03T06:35:15;7.40;;;5.75;;
7703;SDS011;3894;49.700;10.770;2022-08-03T06:37:44;7.43;;;6.47;;
7703;SDS011;3894;49.700;10.770;2022-08-03T06:40:14;8.13;;;6.18;;
7703;SDS011;3894;49.700;10.770;2022-08-03T06:42:41;8.68;;;6.28;;
7703;SDS011;3894;49.700;10.770;2022-08-03T06:45:08;10.18;;;6.40;;
7703;SDS011;3894;49.700;10.770;2022-08-03T06:47:38;7.03;;;5.88;;
7703;SDS011;3894;49.700;10.770;2022-08-03T06:50:07;6.50;;;5.43;;
7703;SDS011;3894;49.700;10.770;2022-08-03T06:52:34;10.48;;;6.18;;
7703;SDS011;3894;49.700;10.770;2022-08-03T06:54:59;6.75;;;5.50;;
7703;SDS011;3894;49.700;10.770;2022-08-03T06:57:25;7.43;;;5.65;;
7703;SDS011;3894;49.700;10.770;2022-08-03T06:59:50;8.27;;;5.38;;
7703;SDS011;3894;49.700;10.770;2022-08-03T07:02:16;8.10;;;5.40;;
7703;SDS011;3894;49.700;10.770;2022-08-03T07:04:45;7.60;;;5.85;;
7703;SDS011;3894;49.700;10.770;2022-08-03T07:07:11;7.60;;;5.32;;
7703;SDS011;3894;49.700;10.770;2022-08-03T07:09:37;7.78;;;5.50;;
7703;SDS011;3894;49.700;10.770;2022-08-03T07:12:03;8.60;;;5.45;;
7703;SDS011;3894;49.700;10.770;2022-08-03T07:14:30;7.50;;;5.22;;
7703;SDS011;3894;49.700;10.770;2022-08-03T07:16:56;9.98;;;5.32;;
7703;SDS011;3894;49.700;10.770;2022-08-03T07:19:21;6.20;;;4.97;;
7703;SDS011;3894;49.700;10.770;2022-08-03T07:21:47;6.30;;;4.63;;
7703;SDS011;3894;49.700;10.770;2022-08-03T07:24:12;7.00;;;4.43;;
7703;SDS011;3894;49.700;10.770;2022-08-03T07:26:38;6.85;;;4.80;;
7703;SDS011;3894;49.700;10.770;2022-08-03T07:29:04;5.50;;;4.30;;
7703;SDS011;3894;49.700;10.770;2022-08-03T07:31:29;6.50;;;4.13;;
7703;SDS011;3894;49.700;10.770;2022-08-03T07:33:55;7.68;;;4.30;;
7703;SDS011;3894;49.700;10.770;2022-08-03T07:36:21;7.43;;;4.40;;
7703;SDS011;3894;49.700;10.770;2022-08-03T07:38:48;6.55;;;4.28;;
7703;SDS011;3894;49.700;10.770;2022-08-03T07:41:14;6.07;;;4.53;;
7703;SDS011;3894;49.700;10.770;2022-08-03T07:43:40;5.95;;;4.10;;
7703;SDS011;3894;49.700;10.770;2022-08-03T07:46:05;6.82;;;4.00;;
7703;SDS011;3894;49.700;10.770;2022-08-03T07:48:31;6.93;;;4.20;;
7703;SDS011;3894;49.700;10.770;2022-08-03T07:50:56;7.00;;;4.30;;
7703;SDS011;3894;49.700;10.770;2022-08-03T07:53:22;6.20;;;4.00;;
7703;SDS011;3894;49.700;10.770;2022-08-03T07:55:47;6.47;;;3.95;;
7703;SDS011;3894;49.700;10.770;2022-08-03T07:58:13;4.55;;;3.92;;
7703;SDS011;3894;49.700;10.770;2022-08-03T08:00:46;6.22;;;4.30;;
7703;SDS011;3894;49.700;10.770;2022-08-03T08:03:12;8.65;;;3.90;;
7703;SDS011;3894;49.700;10.770;2022-08-03T08:05:38;6.30;;;4.10;;
7703;SDS011;3894;49.700;10.770;2022-08-03T08:08:03;5.57;;;3.92;;
7703;SDS011;3894;49.700;10.770;2022-08-03T08:10:29;6.40;;;3.90;;
7703;SDS011;3894;49.700;10.770;2022-08-03T08:12:56;5.60;;;3.58;;
7703;SDS011;3894;49.700;10.770;2022-08-03T08:15:22;6.20;;;3.60;;
7703;SDS011;3894;49.700;10.770;2022-08-03T08:17:49;4.55;;;3.53;;
7703;SDS011;3894;49.700;10.770;2022-08-03T08:20:18;5.47;;;3.92;;
7703;SDS011;3894;49.700;10.770;2022-08-03T08:22:48;5.05;;;3.50;;
7703;SDS011;3894;49.700;10.770;2022-08-03T08:25:13;5.13;;;3.33;;
7703;SDS011;3894;49.700;10.770;2022-08-03T08:27:43;5.80;;;3.58;;
7703;SDS011;3894;49.700;10.770;2022-08-03T08:30:10;8.52;;;4.00;;
7703;SDS011;3894;49.700;10.770;2022-08-03T08:32:36;4.82;;;3.80;;
7703;SDS011;3894;49.700;10.770;2022-08-03T08:35:03;5.28;;;4.15;;
7703;SDS011;3894;49.700;10.770;2022-08-03T08:37:30;6.55;;;4.07;;
7703;SDS011;3894;49.700;10.770;2022-08-03T08:39:55;5.70;;;3.63;;
7703;SDS011;3894;49.700;10.770;2022-08-03T08:42:21;5.18;;;3.40;;
7703;SDS011;3894;49.700;10.770;2022-08-03T08:44:47;4.97;;;3.50;;
7703;SDS011;3894;49.700;10.770;2022-08-03T08:47:13;5.95;;;3.40;;
7703;SDS011;3894;49.700;10.770;2022-08-03T08:49:39;5.22;;;3.50;;
7703;SDS011;3894;49.700;10.770;2022-08-03T08:52:08;5.53;;;3.42;;
7703;SDS011;3894;49.700;10.770;2022-08-03T08:54:35;4.63;;;3.40;;
7703;SDS011;3894;49.700;10.770;2022-08-03T08:57:04;5.55;;;3.10;;
7703;SDS011;3894;49.700;10.770;2022-08-03T08:59:32;4.53;;;3.40;;
7703;SDS011;3894;49.700;10.770;2022-08-03T09:01:59;5.93;;;3.15;;
7703;SDS011;3894;49.700;10.770;2022-08-03T09:04:25;5.10;;;3.00;;
7703;SDS011;3894;49.700;10.770;2022-08-03T09:06:55;5.50;;;3.53;;
7703;SDS011;3894;49.700;10.770;2022-08-03T09:09:20;4.50;;;3.30;;
7703;SDS011;3894;49.700;10.770;2022-08-03T09:11:49;10.07;;;3.45;;
7703;SDS011;3894;49.700;10.770;2022-08-03T09:14:15;6.18;;;3.08;;
7703;SDS011;3894;49.700;10.770;2022-08-03T09:16:56;5.15;;;3.10;;
7703;SDS011;3894;49.700;10.770;2022-08-03T09:19:27;4.95;;;3.20;;
7703;SDS011;3894;49.700;10.770;2022-08-03T09:24:55;4.88;;;2.85;;
7703;SDS011;3894;49.700;10.770;2022-08-03T09:27:25;4.55;;;3.08;;
7703;SDS011;3894;49.700;10.770;2022-08-03T09:29:51;4.22;;;2.85;;
7703;SDS011;3894;49.700;10.770;2022-08-03T09:32:18;4.47;;;2.75;;
7703;SDS011;3894;49.700;10.770;2022-08-03T09:34:46;4.85;;;3.13;;
7703;SDS011;3894;49.700;10.770;2022-08-03T09:37:14;5.90;;;3.00;;
7703;SDS011;3894;49.700;10.770;2022-08-03T09:39:41;4.60;;;2.60;;
7703;SDS011;3894;49.700;10.770;2022-08-03T09:42:11;3.63;;;2.63;;
7703;SDS011;3894;49.700;10.770;2022-08-03T09:44:42;3.78;;;2.40;;
7703;SDS011;3894;49.700;10.770;2022-08-03T09:47:10;4.55;;;2.70;;
7703;SDS011;3894;49.700;10.770;2022-08-03T09:49:37;3.45;;;2.50;;
7703;SDS011;3894;49.700;10.770;2022-08-03T09:52:12;3.90;;;2.80;;
7703;SDS011;3894;49.700;10.770;2022-08-03T09:54:42;3.28;;;2.63;;
7703;SDS011;3894;49.700;10.770;2022-08-03T09:57:20;3.90;;;2.97;;
7703;SDS011;3894;49.700;10.770;2022-08-03T09:59:47;5.50;;;2.60;;
7703;SDS011;3894;49.700;10.770;2022-08-03T10:02:24;3.40;;;2.53;;
7703;SDS011;3894;49.700;10.770;2022-08-03T10:04:50;2.78;;;2.20;;
7703;SDS011;3894;49.700;10.770;2022-08-03T10:07:17;3.80;;;2.45;;
7703;SDS011;3894;49.700;10.770;2022-08-03T10:09:52;5.53;;;2.45;;
7703;SDS011;3894;49.700;10.770;2022-08-03T10:12:24;2.72;;;2.08;;
7703;SDS011;3894;49.700;10.770;2022-08-03T10:14:51;6.63;;;2.47;;
7703;SDS011;3894;49.700;10.770;2022-08-03T10:17:17;3.35;;;2.30;;
7703;SDS011;3894;49.700;10.770;2022-08-03T10:19:44;5.03;;;2.60;;
7703;SDS011;3894;49.700;10.770;2022-08-03T10:22:14;3.85;;;2.50;;
7703;SDS011;3894;49.700;10.770;2022-08-03T10:24:49;3.65;;;2.30;;
7703;SDS011;3894;49.700;10.770;2022-08-03T10:27:31;5.65;;;2.70;;
7703;SDS011;3894;49.700;10.770;2022-08-03T10:30:05;3.08;;;2.45;;
7703;SDS011;3894;49.700;10.770;2022-08-03T10:32:33;2.88;;;2.33;;
7703;SDS011;3894;49.700;10.770;2022-08-03T10:35:04;5.17;;;2.50;;
7703;SDS011;3894;49.700;10.770;2022-08-03T10:37:33;3.30;;;2.33;;
7703;SDS011;3894;49.700;10.770;2022-08-03T10:40:06;5.57;;;2.65;;
7703;SDS011;3894;49.700;10.770;2022-08-03T10:42:34;3.60;;;2.70;;
7703;SDS011;3894;49.700;10.770;2022-08-03T10:45:08;3.58;;;2.50;;
7703;SDS011;3894;49.700;10.770;2022-08-03T10:47:42;4.82;;;2.65;;
7703;SDS011;3894;49.700;10.770;2022-08-03T10:50:08;4.25;;;2.65;;
7703;SDS011;3894;49.700;10.770;2022-08-03T10:52:35;3.90;;;2.42;;
7703;SDS011;3894;49.700;10.770;2022-08-03T10:55:00;3.92;;;2.63;;
7703;SDS011;3894;49.700;10.770;2022-08-03T11:00:20;4.10;;;2.70;;
7703;SDS011;3894;49.700;10.770;2022-08-03T11:03:08;3.38;;;2.47;;
7703;SDS011;3894;49.700;10.770;2022-08-03T11:05:45;3.40;;;2.45;;
7703;SDS011;3894;49.700;10.770;2022-08-03T11:08:16;3.05;;;2.28;;
7703;SDS011;3894;49.700;10.770;2022-08-03T11:10:53;5.22;;;2.50;;
7703;SDS011;3894;49.700;10.770;2022-08-03T11:13:22;3.03;;;2.40;;
7703;SDS011;3894;49.700;10.770;2022-08-03T11:15:51;2.83;;;2.20;;
7703;SDS011;3894;49.700;10.770;2022-08-03T11:18:18;4.20;;;2.40;;
7703;SDS011;3894;49.700;10.770;2022-08-03T11:20:48;6.82;;;2.40;;
7703;SDS011;3894;49.700;10.770;2022-08-03T11:23:40;5.63;;;2.40;;
7703;SDS011;3894;49.700;10.770;2022-08-03T11:28:43;4.80;;;2.22;;
7703;SDS011;3894;49.700;10.770;2022-08-03T11:34:04;2.80;;;2.22;;
7703;SDS011;3894;49.700;10.770;2022-08-03T11:39:40;4.00;;;2.30;;
7703;SDS011;3894;49.700;10.770;2022-08-03T11:44:59;3.22;;;2.20;;
7703;SDS011;3894;49.700;10.770;2022-08-03T11:47:26;3.67;;;2.40;;
7703;SDS011;3894;49.700;10.770;2022-08-03T11:49:54;3.05;;;2.08;;
7703;SDS011;3894;49.700;10.770;2022-08-03T11:52:23;3.58;;;2.25;;
7703;SDS011;3894;49.700;10.770;2022-08-03T11:54:51;2.38;;;2.00;;
7703;SDS011;3894;49.700;10.770;2022-08-03T11:57:28;5.80;;;2.53;;
7703;SDS011;3894;49.700;10.770;2022-08-03T11:59:54;2.28;;;2.00;;
7703;SDS011;3894;49.700;10.770;2022-08-03T12:02:20;3.08;;;2.42;;
7703;SDS011;3894;49.700;10.770;2022-08-03T12:07:25;2.83;;;2.22;;
7703;SDS011;3894;49.700;10.770;2022-08-03T12:12:31;4.13;;;2.45;;
7703;SDS011;3894;49.700;10.770;2022-08-03T12:14:57;3.70;;;2.13;;
7703;SDS011;3894;49.700;10.770;2022-08-03T12:17:23;3.50;;;2.20;;
7703;SDS011;3894;49.700;10.770;2022-08-03T12:19:56;3.70;;;2.45;;
7703;SDS011;3894;49.700;10.770;2022-08-03T12:22:32;3.42;;;2.22;;
7703;SDS011;3894;49.700;10.770;2022-08-03T12:25:02;3.90;;;2.30;;
7703;SDS011;3894;49.700;10.770;2022-08-03T12:27:29;3.75;;;2.15;;
7703;SDS011;3894;49.700;10.770;2022-08-03T12:29:55;2.80;;;2.22;;
7703;SDS011;3894;49.700;10.770;2022-08-03T12:32:22;3.08;;;2.28;;
7703;SDS011;3894;49.700;10.770;2022-08-03T12:34:48;3.45;;;2.10;;
7703;SDS011;3894;49.700;10.770;2022-08-03T12:37:17;2.33;;;2.05;;
7703;SDS011;3894;49.700;10.770;2022-08-03T12:39:48;3.25;;;2.22;;
7703;SDS011;3894;49.700;10.770;2022-08-03T12:42:17;2.17;;;1.98;;
7703;SDS011;3894;49.700;10.770;2022-08-03T12:44:43;2.17;;;1.98;;
7703;SDS011;3894;49.700;10.770;2022-08-03T12:47:09;3.35;;;2.17;;
7703;SDS011;3894;49.700;10.770;2022-08-03T12:49:49;3.80;;;2.20;;
7703;SDS011;3894;49.700;10.770;2022-08-03T12:52:16;2.77;;;2.03;;
7703;SDS011;3894;49.700;10.770;2022-08-03T12:54:52;2.63;;;1.95;;
7703;SDS011;3894;49.700;10.770;2022-08-03T12:57:23;3.67;;;2.07;;
7703;SDS011;3894;49.700;10.770;2022-08-03T12:59:48;2.90;;;2.03;;
7703;SDS011;3894;49.700;10.770;2022-08-03T13:02:25;2.92;;;2.10;;
7703;SDS011;3894;49.700;10.770;2022-08-03T13:04:52;3.03;;;2.05;;
7703;SDS011;3894;49.700;10.770;2022-08-03T13:07:19;2.47;;;2.10;;
7703;SDS011;3894;49.700;10.770;2022-08-03T13:12:22;5.45;;;2.30;;
7703;SDS011;3894;49.700;10.770;2022-08-03T13:17:16;2.47;;;1.90;;
7703;SDS011;3894;49.700;10.770;2022-08-03T13:19:42;3.10;;;2.10;;
7703;SDS011;3894;49.700;10.770;2022-08-03T13:22:10;2.88;;;1.85;;
7703;SDS011;3894;49.700;10.770;2022-08-03T13:24:40;2.72;;;2.00;;
7703;SDS011;3894;49.700;10.770;2022-08-03T13:27:07;3.33;;;2.00;;
7703;SDS011;3894;49.700;10.770;2022-08-03T13:29:33;2.78;;;2.13;;
7703;SDS011;3894;49.700;10.770;2022-08-03T13:31:59;3.30;;;2.00;;
7703;SDS011;3894;49.700;10.770;2022-08-03T13:34:25;2.28;;;2.00;;
7703;SDS011;3894;49.700;10.770;2022-08-03T13:36:51;3.10;;;2.08;;
7703;SDS011;3894;49.700;10.770;2022-08-03T13:39:18;3.30;;;1.90;;
7703;SDS011;3894;49.700;10.770;2022-08-03T13:41:44;3.72;;;2.13;;
7703;SDS011;3894;49.700;10.770;2022-08-03T13:44:10;3.40;;;1.90;;
7703;SDS011;3894;49.700;10.770;2022-08-03T13:46:36;3.78;;;2.10;;
7703;SDS011;3894;49.700;10.770;2022-08-03T13:49:02;3.28;;;2.00;;
7703;SDS011;3894;49.700;10.770;2022-08-03T13:51:28;2.33;;;1.98;;
7703;SDS011;3894;49.700;10.770;2022-08-03T13:53:54;2.13;;;1.90;;
7703;SDS011;3894;49.700;10.770;2022-08-03T13:56:19;2.40;;;1.90;;
7703;SDS011;3894;49.700;10.770;2022-08-03T13:58:45;3.33;;;2.03;;
7703;SDS011;3894;49.700;10.770;2022-08-03T14:01:11;3.38;;;2.33;;
7703;SDS011;3894;49.700;10.770;2022-08-03T14:03:36;3.10;;;2.30;;
7703;SDS011;3894;49.700;10.770;2022-08-03T14:06:02;2.97;;;2.03;;
7703;SDS011;3894;49.700;10.770;2022-08-03T14:08:27;3.85;;;1.90;;
7703;SDS011;3894;49.700;10.770;2022-08-03T14:10:53;2.60;;;2.17;;
7703;SDS011;3894;49.700;10.770;2022-08-03T14:13:19;2.80;;;1.90;;
7703;SDS011;3894;49.700;10.770;2022-08-03T14:15:45;3.15;;;1.98;;
7703;SDS011;3894;49.700;10.770;2022-08-03T14:18:11;3.67;;;2.10;;
7703;SDS011;3894;49.700;10.770;2022-08-03T14:20:36;5.78;;;2.35;;
7703;SDS011;3894;49.700;10.770;2022-08-03T14:23:02;3.15;;;1.77;;
7703;SDS011;3894;49.700;10.770;2022-08-03T14:25:28;2.83;;;2.20;;
7703;SDS011;3894;49.700;10.770;2022-08-03T14:27:54;3.20;;;1.80;;
7703;SDS011;3894;49.700;10.770;2022-08-03T14:30:20;3.80;;;2.13;;
7703;SDS011;3894;49.700;10.770;2022-08-03T14:32:46;4.00;;;2.17;;
7703;SDS011;3894;49.700;10.770;2022-08-03T14:35:11;3.47;;;2.53;;
7703;SDS011;3894;49.700;10.770;2022-08-03T14:37:37;2.65;;;1.77;;
7703;SDS011;3894;49.700;10.770;2022-08-03T14:40:03;3.67;;;2.00;;
7703;SDS011;3894;49.700;10.770;2022-08-03T14:42:30;3.85;;;2.30;;
7703;SDS011;3894;49.700;10.770;2022-08-03T14:44:55;3.53;;;2.28;;
7703;SDS011;3894;49.700;10.770;2022-08-03T14:47:21;4.03;;;2.00;;
7703;SDS011;3894;49.700;10.770;2022-08-03T14:49:47;2.42;;;1.98;;
7703;SDS011;3894;49.700;10.770;2022-08-03T14:52:12;5.43;;;2.10;;
7703;SDS011;3894;49.700;10.770;2022-08-03T14:54:38;3.28;;;2.20;;
7703;SDS011;3894;49.700;10.770;2022-08-03T14:57:03;2.75;;;2.08;;
7703;SDS011;3894;49.700;10.770;2022-08-03T14:59:29;2.53;;;2.30;;
7703;SDS011;3894;49.700;10.770;2022-08-03T15:01:54;3.22;;;2.10;;
7703;SDS011;3894;49.700;10.770;2022-08-03T15:04:20;2.88;;;2.10;;
7703;SDS011;3894;49.700;10.770;2022-08-03T15:06:46;3.05;;;1.88;;
7703;SDS011;3894;49.700;10.770;2022-08-03T15:09:11;3.08;;;2.00;;
7703;SDS011;3894;49.700;10.770;2022-08-03T15:11:37;3.75;;;2.00;;
7703;SDS011;3894;49.700;10.770;2022-08-03T15:14:03;2.80;;;2.15;;
7703;SDS011;3894;49.700;10.770;2022-08-03T15:16:28;2.80;;;2.05;;
7703;SDS011;3894;49.700;10.770;2022-08-03T15:18:54;3.78;;;2.40;;
7703;SDS011;3894;49.700;10.770;2022-08-03T15:21:19;3.08;;;2.00;;
7703;SDS011;3894;49.700;10.770;2022-08-03T15:23:45;4.40;;;2.00;;
7703;SDS011;3894;49.700;10.770;2022-08-03T15:26:11;4.03;;;2.17;;
7703;SDS011;3894;49.700;10.770;2022-08-03T15:28:36;3.15;;;1.95;;
7703;SDS011;3894;49.700;10.770;2022-08-03T15:31:02;4.25;;;2.10;;
7703;SDS011;3894;49.700;10.770;2022-08-03T15:33:27;4.18;;;2.00;;
7703;SDS011;3894;49.700;10.770;2022-08-03T15:35:53;4.00;;;1.90;;
7703;SDS011;3894;49.700;10.770;2022-08-03T15:38:20;2.13;;;1.88;;
7703;SDS011;3894;49.700;10.770;2022-08-03T15:40:48;2.17;;;1.88;;
7703;SDS011;3894;49.700;10.770;2022-08-03T15:43:14;2.08;;;1.80;;
7703;SDS011;3894;49.700;10.770;2022-08-03T15:45:39;2.63;;;1.75;;
7703;SDS011;3894;49.700;10.770;2022-08-03T15:48:06;3.20;;;1.88;;
7703;SDS011;3894;49.700;10.770;2022-08-03T15:50:32;3.10;;;2.03;;